| time (UTC) | temp F | wind direction | speed knots | gust knots | rain 1hr in | rain 24hr in | rain mn in | humidity % | barometer mb |
| 20260903084114 | 70 | 58 | 1.7 | 5.2 | 0.00 | 0.00 | 0.00 | 54 | 1020.9 |
| 20260903083502 | 69 | 16 | 1.7 | 4.3 | 0.00 | 0.00 | 0.00 | 58 | 1021.3 |
| 20260903082502 | 70 | 350 | 0.0 | 1.7 | 0.00 | 0.00 | 0.00 | 56 | 1021.0 |
| 20260903081115 | 69 | 221 | 1.7 | 3.5 | 0.00 | 0.00 | 0.00 | 61 | 1021.2 |
| 20260903080502 | 68 | 19 | 0.9 | 2.6 | 0.00 | 0.00 | 0.00 | 63 | 1021.2 |
| 20260903075502 | 68 | 319 | 0.9 | 3.5 | 0.00 | 0.00 | 0.00 | 63 | 1021.4 |
| 20260903074115 | 67 | 282 | 0.9 | 3.5 | 0.00 | 0.00 | 0.00 | 63 | 1021.5 |
| 20260903073501 | 66 | 124 | 0.0 | 2.6 | 0.00 | 0.00 | 0.00 | 66 | 1021.7 |
| 20260903072501 | 65 | 329 | 0.9 | 2.6 | 0.00 | 0.00 | 0.00 | 69 | 1022.0 |
| 20260903071115 | 64 | 323 | 0.9 | 3.5 | 0.00 | 0.00 | 0.00 | 74 | 1022.1 |
| 20260903070502 | 63 | 194 | 0.0 | 1.7 | 0.00 | 0.00 | 0.00 | 75 | 1022.2 |
| 20260903065502 | 61 | 299 | 0.0 | 1.7 | 0.00 | 0.00 | 0.00 | 77 | 1022.5 |
| 20260903064114 | 61 | 293 | 0.9 | 1.7 | 0.00 | 0.00 | 0.00 | 81 | 1022.6 |
| 20260903063501 | 60 | 259 | 0.9 | 1.7 | 0.00 | 0.00 | 0.00 | 83 | 1022.7 |
| 20260903062502 | 59 | 186 | 1.7 | 3.5 | 0.00 | 0.00 | 0.00 | 84 | 1022.8 |
| 20260903061115 | 59 | 189 | 0.9 | 4.3 | 0.00 | 0.00 | 0.00 | 84 | 1022.9 |
| 20260903060502 | 58 | 303 | 1.7 | 2.6 | 0.00 | 0.00 | 0.00 | 85 | 1022.9 |
| 20260903055501 | 58 | 294 | 0.9 | 2.6 | 0.00 | 0.00 | 0.00 | 85 | 1022.8 |
| 20260903054114 | 58 | 181 | 0.0 | 1.7 | 0.00 | 0.00 | 0.00 | 86 | 1022.8 |
| 20260903053502 | 58 | 304 | 1.7 | 2.6 | 0.00 | 0.00 | 0.00 | 86 | 1022.9 |
| 20260903052502 | 58 | 219 | 0.9 | 1.7 | 0.00 | 0.00 | 0.00 | 86 | 1022.8 |
| 20260903051115 | 57 | 174 | 1.7 | 2.6 | 0.00 | 0.00 | 0.00 | 86 | 1022.8 |
| 20260903050501 | 58 | 189 | 0.9 | 1.7 | 0.00 | 0.00 | 0.00 | 86 | 1022.6 |
| 20260903045502 | 57 | 349 | 0.9 | 3.5 | 0.00 | 0.00 | 0.00 | 86 | 1022.7 |
| 20260903044114 | 57 | 360 | 0.9 | 1.7 | 0.00 | 0.00 | 0.00 | 86 | 1022.5 |
| 20260903043501 | 58 | 22 | 0.9 | 1.7 | 0.00 | 0.00 | 0.00 | 86 | 1022.5 |
| 20260903042502 | 57 | 155 | 1.7 | 2.6 | 0.00 | 0.00 | 0.00 | 86 | 1022.6 |
| 20260903041114 | 58 | 165 | 0.9 | 2.6 | 0.00 | 0.00 | 0.00 | 85 | 1022.5 |
| 20260903040502 | 58 | 202 | 1.7 | 3.5 | 0.00 | 0.00 | 0.00 | 85 | 1022.5 |
| 20260903035502 | 58 | 127 | 0.9 | 1.7 | 0.00 | 0.00 | 0.00 | 85 | 1022.3 |
| 20260903034501 | 58 | 292 | 0.9 | 2.6 | 0.00 | 0.00 | 0.00 | 86 | 1022.5 |
| 20260903033501 | 58 | 190 | 0.9 | 2.6 | 0.00 | 0.00 | 0.00 | 86 | 1022.4 |
| 20260903032502 | 58 | 347 | 0.9 | 2.6 | 0.00 | 0.00 | 0.00 | 86 | 1022.4 |
| 20260903031115 | 57 | 181 | 0.9 | 1.7 | 0.00 | 0.00 | 0.00 | 86 | 1022.3 |
| 20260903030502 | 58 | 276 | 0.9 | 1.7 | 0.00 | 0.00 | 0.00 | 86 | 1022.4 |
| 20260903025502 | 57 | 302 | 0.0 | 1.7 | 0.00 | 0.00 | 0.00 | 86 | 1022.3 |
| 20260903024502 | 58 | 57 | 0.9 | 1.7 | 0.00 | 0.00 | 0.00 | 85 | 1022.3 |
| 20260903023502 | 57 | 321 | 0.9 | 2.6 | 0.00 | 0.00 | 0.00 | 87 | 1022.5 |
| 20260903022502 | 57 | 360 | 0.0 | 0.9 | 0.00 | 0.00 | 0.00 | 86 | 1022.2 |
| 20260903021114 | 57 | 264 | 0.9 | 2.6 | 0.00 | 0.00 | 0.00 | 86 | 1022.2 |
| 20260903020502 | 58 | 164 | 0.9 | 1.7 | 0.00 | 0.00 | 0.00 | 85 | 1022.3 |
| 20260903015502 | 57 | 22 | 0.9 | 1.7 | 0.00 | 0.00 | 0.00 | 86 | 1022.3 |
| 20260903014114 | 57 | 15 | 0.0 | 1.7 | 0.00 | 0.00 | 0.00 | 86 | 1022.3 |
| 20260903013501 | 58 | 311 | 0.0 | 1.7 | 0.00 | 0.00 | 0.00 | 86 | 1022.3 |
| 20260903012501 | 58 | 21 | 0.0 | 1.7 | 0.00 | 0.00 | 0.00 | 85 | 1022.4 |
| 20260903011115 | 58 | 348 | 0.0 | 1.7 | 0.00 | 0.00 | 0.00 | 85 | 1022.4 |
| 20260903010502 | 58 | 324 | 0.9 | 1.7 | 0.00 | 0.00 | 0.00 | 85 | 1022.4 |
| 20260903005502 | 58 | 98 | 0.0 | 1.7 | 0.00 | 0.00 | 0.00 | 84 | 1022.3 |
| 20260903004115 | 58 | 60 | 0.9 | 1.7 | 0.00 | 0.00 | 0.00 | 83 | 1022.3 |
| 20260903003502 | 58 | 41 | 0.9 | 1.7 | 0.00 | 0.00 | 0.00 | 84 | 1022.4 |
| 20260903002502 | 57 | 145 | 0.9 | 1.7 | 0.00 | 0.00 | 0.00 | 85 | 1022.4 |
| 20260903001514 | 57 | 253 | 0.0 | 1.7 | 0.00 | 0.00 | 0.00 | 85 | 1022.5 |
| 20260903000501 | 57 | 360 | 0.0 | 0.9 | 0.00 | 0.00 | 0.00 | 85 | 1022.5 |
| 20260902235501 | 57 | 87 | 0.9 | 1.7 | 0.00 | 0.00 | 0.00 | 85 | 1022.5 |
| 20260902234115 | 57 | 90 | 0.9 | 2.6 | 0.00 | 0.00 | 0.00 | 85 | 1022.6 |
| 20260902233502 | 57 | 96 | 0.9 | 2.6 | 0.00 | 0.00 | 0.00 | 84 | 1022.6 |
| 20260902232501 | 57 | 39 | 0.9 | 1.7 | 0.00 | 0.00 | 0.00 | 84 | 1022.7 |
| 20260902231502 | 57 | 75 | 0.9 | 2.6 | 0.00 | 0.00 | 0.00 | 83 | 1022.6 |
| 20260902230502 | 58 | 113 | 0.9 | 2.6 | 0.00 | 0.00 | 0.00 | 84 | 1022.4 |
| 20260902225502 | 58 | 46 | 0.9 | 1.7 | 0.00 | 0.00 | 0.00 | 83 | 1022.3 |
| 20260902224115 | 58 | 66 | 0.9 | 1.7 | 0.00 | 0.00 | 0.00 | 83 | 1022.1 |
| 20260902223502 | 59 | 105 | 0.9 | 2.6 | 0.00 | 0.00 | 0.00 | 82 | 1021.9 |
| 20260902222502 | 59 | 154 | 0.0 | 1.7 | 0.00 | 0.00 | 0.00 | 82 | 1021.9 |
| 20260902221115 | 60 | 348 | 0.9 | 1.7 | 0.00 | 0.00 | 0.00 | 81 | 1021.6 |
| 20260902220501 | 60 | 103 | 0.9 | 2.6 | 0.00 | 0.00 | 0.00 | 80 | 1021.4 |
| 20260902215502 | 61 | 100 | 0.9 | 2.6 | 0.00 | 0.00 | 0.00 | 79 | 1021.3 |
| 20260902214115 | 61 | 20 | 0.9 | 1.7 | 0.00 | 0.00 | 0.00 | 79 | 1021.2 |
| 20260902213501 | 61 | 12 | 0.9 | 3.5 | 0.00 | 0.00 | 0.00 | 79 | 1021.2 |
| 20260902211115 | 61 | 18 | 0.9 | 0.9 | 0.00 | 0.00 | 0.00 | 79 | 1021.1 |
| 20260902210502 | 62 | 27 | 0.9 | 2.6 | 0.00 | 0.00 | 0.00 | 79 | 1021.0 |
| 20260902205502 | 62 | 360 | 0.0 | 1.7 | 0.00 | 0.00 | 0.00 | 76 | 1020.7 |
| 20260902204116 | 62 | 154 | 0.9 | 1.7 | 0.00 | 0.00 | 0.00 | 77 | 1020.7 |
| 20260902203501 | 63 | 92 | 0.9 | 1.7 | 0.00 | 0.00 | 0.00 | 76 | 1020.7 |
| 20260902202502 | 63 | 242 | 0.0 | 1.7 | 0.00 | 0.00 | 0.00 | 76 | 1020.7 |
| 20260902201115 | 63 | 76 | 0.9 | 1.7 | 0.00 | 0.00 | 0.00 | 75 | 1020.6 |
| 20260902200502 | 64 | 122 | 0.9 | 2.6 | 0.00 | 0.00 | 0.00 | 73 | 1020.5 |
| 20260902195502 | 63 | 110 | 0.9 | 1.7 | 0.00 | 0.00 | 0.00 | 76 | 1020.7 |
| 20260902194115 | 64 | 83 | 0.0 | 1.7 | 0.00 | 0.00 | 0.00 | 73 | 1020.5 |
| 20260902193502 | 64 | 360 | 0.0 | 1.7 | 0.00 | 0.00 | 0.00 | 74 | 1020.5 |
| 20260902192501 | 64 | 121 | 0.9 | 2.6 | 0.00 | 0.00 | 0.00 | 73 | 1020.5 |
| 20260902191115 | 65 | 143 | 0.9 | 1.7 | 0.00 | 0.00 | 0.00 | 72 | 1020.4 |
| 20260902190501 | 65 | 50 | 0.9 | 1.7 | 0.00 | 0.00 | 0.00 | 69 | 1020.0 |
| 20260902185502 | 66 | 83 | 0.0 | 2.6 | 0.00 | 0.00 | 0.00 | 70 | 1020.0 |
| 20260902184115 | 67 | 124 | 1.7 | 3.5 | 0.00 | 0.00 | 0.00 | 65 | 1019.6 |
| 20260902183502 | 67 | 61 | 0.9 | 3.5 | 0.00 | 0.00 | 0.00 | 65 | 1019.6 |
| 20260902182502 | 67 | 73 | 1.7 | 3.5 | 0.00 | 0.00 | 0.00 | 65 | 1019.5 |
| 20260902181115 | 68 | 104 | 1.7 | 3.5 | 0.00 | 0.00 | 0.00 | 64 | 1019.2 |
| 20260902180502 | 68 | 92 | 0.9 | 3.5 | 0.00 | 0.00 | 0.00 | 63 | 1018.9 |
| 20260902175502 | 69 | 98 | 1.7 | 3.5 | 0.00 | 0.00 | 0.00 | 60 | 1018.6 |
| 20260902174115 | 69 | 290 | 1.7 | 5.2 | 0.00 | 0.00 | 0.00 | 58 | 1018.4 |
| 20260902173501 | 70 | 265 | 3.5 | 7.8 | 0.00 | 0.00 | 0.00 | 57 | 1018.2 |
| 20260902172502 | 70 | 267 | 3.5 | 7.0 | 0.00 | 0.00 | 0.00 | 56 | 1018.1 |
| 20260902171115 | 71 | 262 | 3.5 | 8.7 | 0.00 | 0.00 | 0.00 | 55 | 1017.9 |
| 20260902170502 | 71 | 260 | 5.2 | 13.0 | 0.00 | 0.00 | 0.00 | 54 | 1017.8 |
| 20260902165502 | 71 | 263 | 6.1 | 13.0 | 0.00 | 0.00 | 0.00 | 54 | 1017.8 |
| 20260902164115 | 72 | 256 | 6.1 | 13.0 | 0.00 | 0.00 | 0.00 | 53 | 1017.7 |
| 20260902163502 | 72 | 268 | 7.0 | 14.8 | 0.00 | 0.00 | 0.00 | 53 | 1017.6 |
| 20260902162502 | 72 | 269 | 6.1 | 13.0 | 0.00 | 0.00 | 0.00 | 52 | 1017.6 |
| 20260902161115 | 73 | 267 | 7.0 | 14.8 | 0.00 | 0.00 | 0.00 | 50 | 1017.4 |
| 20260902160501 | 73 | 270 | 5.2 | 13.9 | 0.00 | 0.00 | 0.00 | 49 | 1017.2 |
| 20260902155502 | 74 | 265 | 5.2 | 10.4 | 0.00 | 0.00 | 0.00 | 50 | 1017.1 |
| 20260902154115 | 74 | 272 | 5.2 | 8.7 | 0.00 | 0.00 | 0.00 | 50 | 1017.0 |
| 20260902153502 | 75 | 262 | 5.2 | 10.4 | 0.00 | 0.00 | 0.00 | 49 | 1017.0 |
| 20260902152501 | 75 | 264 | 7.0 | 13.0 | 0.00 | 0.00 | 0.00 | 47 | 1017.2 |
| 20260902151115 | 75 | 259 | 6.1 | 13.0 | 0.00 | 0.00 | 0.00 | 46 | 1017.1 |
| 20260902150502 | 76 | 267 | 6.1 | 11.3 | 0.00 | 0.00 | 0.00 | 46 | 1017.1 |
| 20260902145502 | 76 | 258 | 5.2 | 12.2 | 0.00 | 0.00 | 0.00 | 45 | 1017.1 |
| 20260902144115 | 76 | 262 | 4.3 | 8.7 | 0.00 | 0.00 | 0.00 | 44 | 1017.1 |
| 20260902143501 | 76 | 259 | 5.2 | 13.9 | 0.00 | 0.00 | 0.00 | 46 | 1017.1 |
| 20260902142502 | 76 | 266 | 7.0 | 11.3 | 0.00 | 0.00 | 0.00 | 46 | 1017.1 |
| 20260902141115 | 75 | 271 | 7.0 | 12.2 | 0.00 | 0.00 | 0.00 | 49 | 1017.4 |
| 20260902140502 | 75 | 261 | 7.0 | 15.6 | 0.00 | 0.00 | 0.00 | 47 | 1017.5 |
| 20260902135502 | 75 | 263 | 7.0 | 12.2 | 0.00 | 0.00 | 0.00 | 47 | 1017.5 |
| 20260902134113 | 75 | 263 | 6.1 | 12.2 | 0.00 | 0.00 | 0.00 | 46 | 1017.3 |
| 20260902133502 | 76 | 272 | 6.1 | 11.3 | 0.00 | 0.00 | 0.00 | 47 | 1017.2 |
| 20260902132502 | 76 | 278 | 5.2 | 10.4 | 0.00 | 0.00 | 0.00 | 48 | 1017.3 |
| 20260902131115 | 76 | 266 | 5.2 | 10.4 | 0.00 | 0.00 | 0.00 | 48 | 1017.2 |
| 20260902130502 | 76 | 268 | 7.0 | 13.0 | 0.00 | 0.00 | 0.00 | 47 | 1017.3 |
| 20260902125502 | 76 | 248 | 4.3 | 12.2 | 0.00 | 0.00 | 0.00 | 46 | 1017.3 |
| 20260902124114 | 76 | 263 | 5.2 | 13.0 | 0.00 | 0.00 | 0.00 | 48 | 1017.4 |
| 20260902123502 | 75 | 254 | 5.2 | 12.2 | 0.00 | 0.00 | 0.00 | 49 | 1017.5 |
| 20260902122502 | 76 | 215 | 4.3 | 12.2 | 0.00 | 0.00 | 0.00 | 46 | 1017.5 |
| 20260902121115 | 76 | 207 | 4.3 | 9.6 | 0.00 | 0.00 | 0.00 | 44 | 1017.4 |
| 20260902120501 | 77 | 205 | 2.6 | 8.7 | 0.00 | 0.00 | 0.00 | 43 | 1017.4 |
| 20260902115501 | 77 | 188 | 2.6 | 7.8 | 0.00 | 0.00 | 0.00 | 42 | 1017.4 |
| 20260902114115 | 77 | 208 | 4.3 | 8.7 | 0.00 | 0.00 | 0.00 | 43 | 1017.5 |
| 20260902113502 | 76 | 170 | 3.5 | 8.7 | 0.00 | 0.00 | 0.00 | 43 | 1017.5 |
| 20260902112502 | 75 | 170 | 4.3 | 9.6 | 0.00 | 0.00 | 0.00 | 43 | 1018.0 |
| 20260902111115 | 75 | 174 | 4.3 | 8.7 | 0.00 | 0.00 | 0.00 | 45 | 1017.9 |
| 20260902110502 | 75 | 181 | 4.3 | 7.8 | 0.00 | 0.00 | 0.00 | 44 | 1018.1 |
| 20260902105501 | 75 | 194 | 3.5 | 7.0 | 0.00 | 0.00 | 0.00 | 44 | 1018.3 |
| 20260902104115 | 74 | 195 | 2.6 | 7.8 | 0.00 | 0.00 | 0.00 | 44 | 1018.5 |
| 20260902103502 | 74 | 196 | 1.7 | 5.2 | 0.00 | 0.00 | 0.00 | 46 | 1018.6 |
| 20260902102501 | 75 | 218 | 1.7 | 4.3 | 0.00 | 0.00 | 0.00 | 46 | 1018.6 |
| 20260902101115 | 74 | 270 | 2.6 | 7.0 | 0.00 | 0.00 | 0.00 | 48 | 1018.7 |
| 20260902100502 | 74 | 200 | 1.7 | 4.3 | 0.00 | 0.00 | 0.00 | 53 | 1018.9 |
| 20260902095502 | 72 | 50 | 0.0 | 3.5 | 0.00 | 0.00 | 0.00 | 55 | 1019.2 |
| 20260902094115 | 71 | 305 | 1.7 | 5.2 | 0.00 | 0.00 | 0.00 | 52 | 1019.5 |
| 20260902093502 | 71 | 303 | 2.6 | 4.3 | 0.00 | 0.00 | 0.00 | 56 | 1019.6 |
| 20260902092501 | 70 | 328 | 0.9 | 3.5 | 0.00 | 0.00 | 0.00 | 55 | 1019.7 |
| 20260902091114 | 70 | 167 | 0.9 | 3.5 | 0.00 | 0.00 | 0.00 | 54 | 1019.8 |
| 20260902090502 | 69 | 195 | 0.9 | 3.5 | 0.00 | 0.00 | 0.00 | 56 | 1019.9 |